sensor_id;sensor_type;location;lat;lon;timestamp;P1;durP1;ratioP1;P2;durP2;ratioP2
19905;SDS011;10115;50.906;4.438;2023-09-18T00:00:14;8.80;;;5.63;;
19905;SDS011;10115;50.906;4.438;2023-09-18T00:02:40;7.10;;;6.40;;
19905;SDS011;10115;50.906;4.438;2023-09-18T00:05:05;5.60;;;4.93;;
19905;SDS011;10115;50.906;4.438;2023-09-18T00:07:31;7.73;;;6.90;;
19905;SDS011;10115;50.906;4.438;2023-09-18T00:09:57;6.40;;;5.90;;
19905;SDS011;10115;50.906;4.438;2023-09-18T00:12:23;7.53;;;6.27;;
19905;SDS011;10115;50.906;4.438;2023-09-18T00:14:49;6.37;;;5.80;;
19905;SDS011;10115;50.906;4.438;2023-09-18T00:17:15;5.80;;;5.30;;
19905;SDS011;10115;50.906;4.438;2023-09-18T00:19:42;6.23;;;5.70;;
19905;SDS011;10115;50.906;4.438;2023-09-18T00:22:08;7.63;;;5.67;;
19905;SDS011;10115;50.906;4.438;2023-09-18T00:24:33;6.03;;;5.53;;
19905;SDS011;10115;50.906;4.438;2023-09-18T00:26:59;6.43;;;5.50;;
19905;SDS011;10115;50.906;4.438;2023-09-18T00:29:25;10.73;;;6.17;;
19905;SDS011;10115;50.906;4.438;2023-09-18T00:31:50;10.90;;;5.73;;
19905;SDS011;10115;50.906;4.438;2023-09-18T00:34:16;8.97;;;5.07;;
19905;SDS011;10115;50.906;4.438;2023-09-18T00:36:42;6.43;;;5.93;;
19905;SDS011;10115;50.906;4.438;2023-09-18T00:39:07;6.33;;;5.70;;
19905;SDS011;10115;50.906;4.438;2023-09-18T00:41:33;6.17;;;5.57;;
19905;SDS011;10115;50.906;4.438;2023-09-18T00:43:59;6.80;;;6.20;;
19905;SDS011;10115;50.906;4.438;2023-09-18T00:46:25;6.67;;;5.97;;
19905;SDS011;10115;50.906;4.438;2023-09-18T00:48:51;6.47;;;5.50;;
19905;SDS011;10115;50.906;4.438;2023-09-18T00:51:18;8.07;;;6.90;;
19905;SDS011;10115;50.906;4.438;2023-09-18T00:53:44;6.80;;;6.03;;
19905;SDS011;10115;50.906;4.438;2023-09-18T00:56:13;15.03;;;5.23;;
19905;SDS011;10115;50.906;4.438;2023-09-18T00:58:39;8.20;;;6.10;;
19905;SDS011;10115;50.906;4.438;2023-09-18T01:01:05;7.67;;;6.17;;
19905;SDS011;10115;50.906;4.438;2023-09-18T01:03:30;6.00;;;5.50;;
19905;SDS011;10115;50.906;4.438;2023-09-18T01:05:56;5.80;;;5.30;;
19905;SDS011;10115;50.906;4.438;2023-09-18T01:08:22;6.13;;;5.63;;
19905;SDS011;10115;50.906;4.438;2023-09-18T01:14:16;5.83;;;5.03;;
19905;SDS011;10115;50.906;4.438;2023-09-18T01:16:50;6.07;;;5.07;;
19905;SDS011;10115;50.906;4.438;2023-09-18T01:19:34;8.03;;;5.60;;
19905;SDS011;10115;50.906;4.438;2023-09-18T01:22:12;10.27;;;5.80;;
19905;SDS011;10115;50.906;4.438;2023-09-18T01:24:40;5.83;;;5.30;;
19905;SDS011;10115;50.906;4.438;2023-09-18T01:27:10;6.27;;;5.60;;
19905;SDS011;10115;50.906;4.438;2023-09-18T01:29:40;6.93;;;5.90;;
19905;SDS011;10115;50.906;4.438;2023-09-18T01:32:06;6.13;;;5.53;;
19905;SDS011;10115;50.906;4.438;2023-09-18T01:34:39;6.20;;;5.20;;
19905;SDS011;10115;50.906;4.438;2023-09-18T01:37:11;8.30;;;6.03;;
19905;SDS011;10115;50.906;4.438;2023-09-18T01:39:39;5.93;;;5.33;;
19905;SDS011;10115;50.906;4.438;2023-09-18T01:42:05;7.33;;;5.83;;
19905;SDS011;10115;50.906;4.438;2023-09-18T01:44:32;10.53;;;5.90;;
19905;SDS011;10115;50.906;4.438;2023-09-18T01:46:58;6.93;;;5.83;;
19905;SDS011;10115;50.906;4.438;2023-09-18T01:49:27;10.23;;;5.47;;
19905;SDS011;10115;50.906;4.438;2023-09-18T01:52:00;6.20;;;5.63;;
19905;SDS011;10115;50.906;4.438;2023-09-18T01:54:26;6.13;;;5.27;;
19905;SDS011;10115;50.906;4.438;2023-09-18T01:56:52;5.30;;;4.77;;
19905;SDS011;10115;50.906;4.438;2023-09-18T01:59:21;6.13;;;4.83;;
19905;SDS011;10115;50.906;4.438;2023-09-18T02:01:48;6.07;;;5.53;;
19905;SDS011;10115;50.906;4.438;2023-09-18T02:04:14;5.23;;;4.83;;
19905;SDS011;10115;50.906;4.438;2023-09-18T02:06:40;6.47;;;5.80;;
19905;SDS011;10115;50.906;4.438;2023-09-18T02:09:06;5.90;;;5.30;;
19905;SDS011;10115;50.906;4.438;2023-09-18T02:11:34;6.27;;;5.30;;
19905;SDS011;10115;50.906;4.438;2023-09-18T02:14:04;6.37;;;5.30;;
19905;SDS011;10115;50.906;4.438;2023-09-18T02:16:31;5.90;;;5.30;;
19905;SDS011;10115;50.906;4.438;2023-09-18T02:18:59;5.97;;;5.47;;
19905;SDS011;10115;50.906;4.438;2023-09-18T02:21:25;6.13;;;5.47;;
19905;SDS011;10115;50.906;4.438;2023-09-18T02:23:51;10.47;;;6.13;;
19905;SDS011;10115;50.906;4.438;2023-09-18T02:26:18;5.83;;;5.33;;
19905;SDS011;10115;50.906;4.438;2023-09-18T02:28:45;5.53;;;5.03;;
19905;SDS011;10115;50.906;4.438;2023-09-18T02:31:10;7.20;;;5.50;;
19905;SDS011;10115;50.906;4.438;2023-09-18T02:33:37;5.93;;;5.37;;
19905;SDS011;10115;50.906;4.438;2023-09-18T02:36:02;6.80;;;6.10;;
19905;SDS011;10115;50.906;4.438;2023-09-18T02:38:28;6.07;;;5.47;;
19905;SDS011;10115;50.906;4.438;2023-09-18T02:40:57;7.40;;;5.90;;
19905;SDS011;10115;50.906;4.438;2023-09-18T02:43:23;6.13;;;5.50;;
19905;SDS011;10115;50.906;4.438;2023-09-18T02:45:49;7.30;;;6.20;;
19905;SDS011;10115;50.906;4.438;2023-09-18T02:48:16;9.07;;;5.93;;
19905;SDS011;10115;50.906;4.438;2023-09-18T02:50:42;5.80;;;5.27;;
19905;SDS011;10115;50.906;4.438;2023-09-18T02:53:11;6.00;;;5.23;;
19905;SDS011;10115;50.906;4.438;2023-09-18T02:55:50;5.73;;;5.27;;
19905;SDS011;10115;50.906;4.438;2023-09-18T02:58:16;6.73;;;5.30;;
19905;SDS011;10115;50.906;4.438;2023-09-18T03:00:44;6.83;;;6.23;;
19905;SDS011;10115;50.906;4.438;2023-09-18T03:03:11;10.87;;;5.03;;
19905;SDS011;10115;50.906;4.438;2023-09-18T03:05:38;8.77;;;4.97;;
19905;SDS011;10115;50.906;4.438;2023-09-18T03:08:04;5.73;;;5.23;;
19905;SDS011;10115;50.906;4.438;2023-09-18T03:10:37;6.80;;;5.17;;
19905;SDS011;10115;50.906;4.438;2023-09-18T03:13:05;6.40;;;5.37;;
19905;SDS011;10115;50.906;4.438;2023-09-18T03:15:31;5.87;;;4.77;;
19905;SDS011;10115;50.906;4.438;2023-09-18T03:17:57;5.00;;;4.60;;
19905;SDS011;10115;50.906;4.438;2023-09-18T03:20:27;5.67;;;4.70;;
19905;SDS011;10115;50.906;4.438;2023-09-18T03:22:57;5.47;;;4.97;;
19905;SDS011;10115;50.906;4.438;2023-09-18T03:25:24;4.80;;;4.37;;
19905;SDS011;10115;50.906;4.438;2023-09-18T03:27:54;4.50;;;4.10;;
19905;SDS011;10115;50.906;4.438;2023-09-18T03:30:21;7.90;;;4.43;;
19905;SDS011;10115;50.906;4.438;2023-09-18T03:32:51;4.97;;;4.40;;
19905;SDS011;10115;50.906;4.438;2023-09-18T03:35:18;4.93;;;4.40;;
19905;SDS011;10115;50.906;4.438;2023-09-18T03:37:44;5.70;;;4.23;;
19905;SDS011;10115;50.906;4.438;2023-09-18T03:40:11;4.40;;;4.10;;
19905;SDS011;10115;50.906;4.438;2023-09-18T03:42:37;5.80;;;4.20;;
19905;SDS011;10115;50.906;4.438;2023-09-18T03:45:04;4.70;;;4.33;;
19905;SDS011;10115;50.906;4.438;2023-09-18T03:47:31;4.67;;;4.30;;
19905;SDS011;10115;50.906;4.438;2023-09-18T03:49:56;7.37;;;4.53;;
19905;SDS011;10115;50.906;4.438;2023-09-18T03:52:22;4.53;;;4.13;;
19905;SDS011;10115;50.906;4.438;2023-09-18T03:54:48;4.87;;;4.33;;
19905;SDS011;10115;50.906;4.438;2023-09-18T03:57:14;3.70;;;3.50;;
19905;SDS011;10115;50.906;4.438;2023-09-18T03:59:40;4.17;;;3.77;;
19905;SDS011;10115;50.906;4.438;2023-09-18T04:02:06;4.07;;;3.70;;
19905;SDS011;10115;50.906;4.438;2023-09-18T04:04:31;5.73;;;4.57;;
19905;SDS011;10115;50.906;4.438;2023-09-18T04:06:57;4.10;;;3.80;;
19905;SDS011;10115;50.906;4.438;2023-09-18T04:09:23;5.00;;;4.23;;
19905;SDS011;10115;50.906;4.438;2023-09-18T04:11:48;5.17;;;3.90;;
19905;SDS011;10115;50.906;4.438;2023-09-18T04:14:14;7.03;;;4.07;;
19905;SDS011;10115;50.906;4.438;2023-09-18T04:16:40;5.00;;;4.00;;
19905;SDS011;10115;50.906;4.438;2023-09-18T04:19:07;5.60;;;3.90;;
19905;SDS011;10115;50.906;4.438;2023-09-18T04:21:34;4.47;;;3.43;;
19905;SDS011;10115;50.906;4.438;2023-09-18T04:24:00;3.90;;;3.60;;
19905;SDS011;10115;50.906;4.438;2023-09-18T04:26:27;4.77;;;3.77;;
19905;SDS011;10115;50.906;4.438;2023-09-18T04:28:56;4.13;;;3.90;;
19905;SDS011;10115;50.906;4.438;2023-09-18T04:31:22;8.93;;;3.97;;
19905;SDS011;10115;50.906;4.438;2023-09-18T04:33:48;4.87;;;4.40;;
19905;SDS011;10115;50.906;4.438;2023-09-18T04:36:14;10.10;;;3.97;;
19905;SDS011;10115;50.906;4.438;2023-09-18T04:38:40;4.17;;;3.87;;
19905;SDS011;10115;50.906;4.438;2023-09-18T04:41:06;4.20;;;3.83;;
19905;SDS011;10115;50.906;4.438;2023-09-18T04:43:36;5.17;;;3.90;;
19905;SDS011;10115;50.906;4.438;2023-09-18T04:46:03;4.07;;;3.70;;
19905;SDS011;10115;50.906;4.438;2023-09-18T04:48:30;3.60;;;3.30;;
19905;SDS011;10115;50.906;4.438;2023-09-18T04:50:56;4.40;;;4.00;;
19905;SDS011;10115;50.906;4.438;2023-09-18T04:53:23;4.53;;;4.10;;
19905;SDS011;10115;50.906;4.438;2023-09-18T04:55:49;3.63;;;3.33;;
19905;SDS011;10115;50.906;4.438;2023-09-18T04:58:15;3.63;;;3.30;;
19905;SDS011;10115;50.906;4.438;2023-09-18T05:00:41;6.27;;;3.30;;
19905;SDS011;10115;50.906;4.438;2023-09-18T05:03:09;3.80;;;3.43;;
19905;SDS011;10115;50.906;4.438;2023-09-18T05:05:35;5.13;;;3.53;;
19905;SDS011;10115;50.906;4.438;2023-09-18T05:08:06;3.77;;;3.57;;
19905;SDS011;10115;50.906;4.438;2023-09-18T05:10:33;4.20;;;3.90;;
19905;SDS011;10115;50.906;4.438;2023-09-18T05:13:02;4.60;;;3.63;;
19905;SDS011;10115;50.906;4.438;2023-09-18T05:15:28;3.97;;;3.67;;
19905;SDS011;10115;50.906;4.438;2023-09-18T05:17:55;4.60;;;3.37;;
19905;SDS011;10115;50.906;4.438;2023-09-18T05:20:23;3.67;;;3.40;;
19905;SDS011;10115;50.906;4.438;2023-09-18T05:22:50;3.47;;;3.23;;
19905;SDS011;10115;50.906;4.438;2023-09-18T05:25:20;4.40;;;3.30;;
19905;SDS011;10115;50.906;4.438;2023-09-18T05:28:12;3.93;;;3.73;;
19905;SDS011;10115;50.906;4.438;2023-09-18T05:30:38;4.23;;;3.90;;
19905;SDS011;10115;50.906;4.438;2023-09-18T05:33:04;4.10;;;3.80;;
19905;SDS011;10115;50.906;4.438;2023-09-18T05:35:35;3.37;;;3.27;;
19905;SDS011;10115;50.906;4.438;2023-09-18T05:38:10;3.30;;;3.20;;
19905;SDS011;10115;50.906;4.438;2023-09-18T05:40:38;5.97;;;3.57;;
19905;SDS011;10115;50.906;4.438;2023-09-18T05:43:04;4.57;;;3.70;;
19905;SDS011;10115;50.906;4.438;2023-09-18T05:45:31;3.90;;;3.53;;
19905;SDS011;10115;50.906;4.438;2023-09-18T05:47:57;3.40;;;3.20;;
19905;SDS011;10115;50.906;4.438;2023-09-18T05:50:29;4.77;;;3.90;;
19905;SDS011;10115;50.906;4.438;2023-09-18T05:53:00;3.70;;;3.50;;
19905;SDS011;10115;50.906;4.438;2023-09-18T05:55:29;5.27;;;3.77;;
19905;SDS011;10115;50.906;4.438;2023-09-18T05:57:55;4.20;;;3.90;;
19905;SDS011;10115;50.906;4.438;2023-09-18T06:00:22;3.60;;;3.40;;
19905;SDS011;10115;50.906;4.438;2023-09-18T06:02:48;3.73;;;3.40;;
19905;SDS011;10115;50.906;4.438;2023-09-18T06:05:16;5.27;;;4.00;;
19905;SDS011;10115;50.906;4.438;2023-09-18T06:07:42;4.77;;;3.33;;
19905;SDS011;10115;50.906;4.438;2023-09-18T06:10:07;4.20;;;3.53;;
19905;SDS011;10115;50.906;4.438;2023-09-18T06:12:33;4.13;;;3.83;;
19905;SDS011;10115;50.906;4.438;2023-09-18T06:14:59;4.43;;;4.13;;
19905;SDS011;10115;50.906;4.438;2023-09-18T06:17:25;5.97;;;4.63;;
19905;SDS011;10115;50.906;4.438;2023-09-18T06:19:50;4.57;;;4.13;;
19905;SDS011;10115;50.906;4.438;2023-09-18T06:22:17;4.07;;;3.77;;
19905;SDS011;10115;50.906;4.438;2023-09-18T06:24:43;4.23;;;3.90;;
19905;SDS011;10115;50.906;4.438;2023-09-18T06:27:08;3.30;;;3.20;;
19905;SDS011;10115;50.906;4.438;2023-09-18T06:29:35;4.27;;;3.93;;
19905;SDS011;10115;50.906;4.438;2023-09-18T06:32:03;4.10;;;3.73;;
19905;SDS011;10115;50.906;4.438;2023-09-18T06:34:30;3.90;;;3.70;;
19905;SDS011;10115;50.906;4.438;2023-09-18T06:36:55;4.50;;;4.03;;
19905;SDS011;10115;50.906;4.438;2023-09-18T06:39:21;4.80;;;4.40;;
19905;SDS011;10115;50.906;4.438;2023-09-18T06:41:48;4.73;;;4.40;;
19905;SDS011;10115;50.906;4.438;2023-09-18T06:44:14;4.17;;;3.90;;
19905;SDS011;10115;50.906;4.438;2023-09-18T06:46:41;4.23;;;3.60;;
19905;SDS011;10115;50.906;4.438;2023-09-18T06:49:07;3.97;;;3.60;;
19905;SDS011;10115;50.906;4.438;2023-09-18T06:51:33;4.03;;;3.77;;
19905;SDS011;10115;50.906;4.438;2023-09-18T06:53:59;6.13;;;4.30;;
19905;SDS011;10115;50.906;4.438;2023-09-18T06:56:27;6.67;;;4.57;;
19905;SDS011;10115;50.906;4.438;2023-09-18T06:58:53;4.07;;;3.77;;
19905;SDS011;10115;50.906;4.438;2023-09-18T07:01:20;4.23;;;3.83;;
19905;SDS011;10115;50.906;4.438;2023-09-18T07:03:46;3.87;;;3.67;;
19905;SDS011;10115;50.906;4.438;2023-09-18T07:06:13;4.60;;;4.30;;
19905;SDS011;10115;50.906;4.438;2023-09-18T07:08:41;4.60;;;3.93;;
19905;SDS011;10115;50.906;4.438;2023-09-18T07:11:08;4.13;;;3.93;;
19905;SDS011;10115;50.906;4.438;2023-09-18T07:13:34;9.63;;;4.53;;
19905;SDS011;10115;50.906;4.438;2023-09-18T07:15:59;4.63;;;4.20;;
19905;SDS011;10115;50.906;4.438;2023-09-18T07:18:25;5.33;;;4.87;;
19905;SDS011;10115;50.906;4.438;2023-09-18T07:20:51;4.43;;;4.13;;
19905;SDS011;10115;50.906;4.438;2023-09-18T07:23:17;4.97;;;4.67;;
19905;SDS011;10115;50.906;4.438;2023-09-18T07:25:42;8.73;;;4.77;;
19905;SDS011;10115;50.906;4.438;2023-09-18T07:28:09;4.87;;;4.47;;
19905;SDS011;10115;50.906;4.438;2023-09-18T07:30:40;6.17;;;4.50;;
19905;SDS011;10115;50.906;4.438;2023-09-18T07:33:07;3.80;;;3.60;;
19905;SDS011;10115;50.906;4.438;2023-09-18T07:35:32;4.80;;;4.40;;
19905;SDS011;10115;50.906;4.438;2023-09-18T07:37:58;5.27;;;4.87;;
19905;SDS011;10115;50.906;4.438;2023-09-18T07:40:23;5.23;;;4.80;;
19905;SDS011;10115;50.906;4.438;2023-09-18T07:42:49;5.70;;;4.77;;
19905;SDS011;10115;50.906;4.438;2023-09-18T07:45:15;5.47;;;4.67;;
19905;SDS011;10115;50.906;4.438;2023-09-18T07:47:40;4.30;;;4.00;;
19905;SDS011;10115;50.906;4.438;2023-09-18T07:50:06;5.20;;;4.70;;
19905;SDS011;10115;50.906;4.438;2023-09-18T07:52:32;7.67;;;4.83;;
19905;SDS011;10115;50.906;4.438;2023-09-18T07:54:58;8.97;;;4.00;;
19905;SDS011;10115;50.906;4.438;2023-09-18T07:57:24;5.23;;;4.10;;
19905;SDS011;10115;50.906;4.438;2023-09-18T07:59:50;4.30;;;4.00;;
19905;SDS011;10115;50.906;4.438;2023-09-18T08:02:16;3.93;;;3.63;;
19905;SDS011;10115;50.906;4.438;2023-09-18T08:04:46;4.53;;;4.23;;
19905;SDS011;10115;50.906;4.438;2023-09-18T08:07:12;4.83;;;4.10;;
19905;SDS011;10115;50.906;4.438;2023-09-18T08:09:38;4.13;;;3.83;;
19905;SDS011;10115;50.906;4.438;2023-09-18T08:12:04;3.70;;;3.50;;
19905;SDS011;10115;50.906;4.438;2023-09-18T08:14:30;4.70;;;4.40;;
19905;SDS011;10115;50.906;4.438;2023-09-18T08:16:57;4.47;;;4.20;;
19905;SDS011;10115;50.906;4.438;2023-09-18T08:19:23;5.67;;;4.47;;
19905;SDS011;10115;50.906;4.438;2023-09-18T08:21:51;5.07;;;3.87;;
19905;SDS011;10115;50.906;4.438;2023-09-18T08:24:21;4.80;;;4.47;;
19905;SDS011;10115;50.906;4.438;2023-09-18T08:26:48;5.20;;;4.60;;
19905;SDS011;10115;50.906;4.438;2023-09-18T08:29:14;4.63;;;4.23;;
19905;SDS011;10115;50.906;4.438;2023-09-18T08:31:40;4.20;;;3.90;;
19905;SDS011;10115;50.906;4.438;2023-09-18T08:34:07;5.67;;;5.17;;
19905;SDS011;10115;50.906;4.438;2023-09-18T08:36:33;5.90;;;5.07;;
19905;SDS011;10115;50.906;4.438;2023-09-18T08:38:58;6.00;;;5.50;;
19905;SDS011;10115;50.906;4.438;2023-09-18T08:41:24;6.23;;;5.03;;
19905;SDS011;10115;50.906;4.438;2023-09-18T08:44:00;8.17;;;5.40;;
19905;SDS011;10115;50.906;4.438;2023-09-18T08:46:28;6.30;;;5.63;;
19905;SDS011;10115;50.906;4.438;2023-09-18T08:48:55;6.03;;;5.53;;
19905;SDS011;10115;50.906;4.438;2023-09-18T08:51:22;6.93;;;6.33;;
19905;SDS011;10115;50.906;4.438;2023-09-18T08:53:48;8.00;;;5.87;;
19905;SDS011;10115;50.906;4.438;2023-09-18T08:56:14;6.00;;;5.50;;
19905;SDS011;10115;50.906;4.438;2023-09-18T08:58:42;7.70;;;6.13;;
19905;SDS011;10115;50.906;4.438;2023-09-18T09:01:09;4.77;;;4.37;;
19905;SDS011;10115;50.906;4.438;2023-09-18T09:03:37;5.50;;;5.10;;
19905;SDS011;10115;50.906;4.438;2023-09-18T09:06:03;5.40;;;5.00;;
19905;SDS011;10115;50.906;4.438;2023-09-18T09:08:30;5.40;;;4.87;;
19905;SDS011;10115;50.906;4.438;2023-09-18T09:10:56;5.27;;;4.77;;
19905;SDS011;10115;50.906;4.438;2023-09-18T09:13:25;5.70;;;4.60;;
19905;SDS011;10115;50.906;4.438;2023-09-18T09:15:52;9.63;;;4.90;;
19905;SDS011;10115;50.906;4.438;2023-09-18T09:18:26;11.30;;;5.23;;
19905;SDS011;10115;50.906;4.438;2023-09-18T09:20:56;4.93;;;4.43;;
19905;SDS011;10115;50.906;4.438;2023-09-18T09:23:25;9.70;;;4.23;;
19905;SDS011;10115;50.906;4.438;2023-09-18T09:25:51;5.47;;;4.93;;
19905;SDS011;10115;50.906;4.438;2023-09-18T09:28:26;5.20;;;4.67;;
19905;SDS011;10115;50.906;4.438;2023-09-18T09:31:00;8.03;;;6.47;;
19905;SDS011;10115;50.906;4.438;2023-09-18T09:33:27;7.10;;;4.20;;
19905;SDS011;10115;50.906;4.438;2023-09-18T09:35:54;4.70;;;4.33;;
19905;SDS011;10115;50.906;4.438;2023-09-18T09:38:28;5.50;;;4.63;;
19905;SDS011;10115;50.906;4.438;2023-09-18T09:40:57;4.37;;;4.07;;
19905;SDS011;10115;50.906;4.438;2023-09-18T09:43:31;4.57;;;4.23;;
19905;SDS011;10115;50.906;4.438;2023-09-18T09:45:58;4.30;;;3.93;;
19905;SDS011;10115;50.906;4.438;2023-09-18T09:48:25;4.60;;;4.20;;
19905;SDS011;10115;50.906;4.438;2023-09-18T09:50:50;5.10;;;4.70;;
19905;SDS011;10115;50.906;4.438;2023-09-18T09:53:20;9.17;;;5.37;;
19905;SDS011;10115;50.906;4.438;2023-09-18T09:56:17;5.20;;;4.73;;
19905;SDS011;10115;50.906;4.438;2023-09-18T09:58:44;5.17;;;4.73;;
19905;SDS011;10115;50.906;4.438;2023-09-18T10:01:24;6.17;;;4.90;;
19905;SDS011;10115;50.906;4.438;2023-09-18T10:03:53;6.57;;;4.80;;
19905;SDS011;10115;50.906;4.438;2023-09-18T10:06:20;10.07;;;5.00;;
19905;SDS011;10115;50.906;4.438;2023-09-18T10:08:47;5.70;;;5.20;;
19905;SDS011;10115;50.906;4.438;2023-09-18T10:11:13;10.03;;;5.57;;
19905;SDS011;10115;50.906;4.438;2023-09-18T10:13:54;5.47;;;4.93;;
19905;SDS011;10115;50.906;4.438;2023-09-18T10:16:24;7.70;;;5.57;;
19905;SDS011;10115;50.906;4.438;2023-09-18T10:21:46;7.33;;;5.17;;
19905;SDS011;10115;50.906;4.438;2023-09-18T10:24:34;4.90;;;4.50;;
19905;SDS011;10115;50.906;4.438;2023-09-18T10:27:02;4.97;;;4.67;;
19905;SDS011;10115;50.906;4.438;2023-09-18T10:29:34;6.93;;;5.00;;
19905;SDS011;10115;50.906;4.438;2023-09-18T10:32:05;4.80;;;4.50;;
19905;SDS011;10115;50.906;4.438;2023-09-18T10:34:34;5.13;;;4.73;;
19905;SDS011;10115;50.906;4.438;2023-09-18T10:37:02;6.07;;;5.20;;
19905;SDS011;10115;50.906;4.438;2023-09-18T10:39:34;5.53;;;4.93;;
19905;SDS011;10115;50.906;4.438;2023-09-18T10:42:01;6.37;;;4.13;;
19905;SDS011;10115;50.906;4.438;2023-09-18T10:44:29;5.90;;;5.30;;
19905;SDS011;10115;50.906;4.438;2023-09-18T10:46:56;5.40;;;4.20;;
19905;SDS011;10115;50.906;4.438;2023-09-18T10:49:23;6.67;;;5.03;;
19905;SDS011;10115;50.906;4.438;2023-09-18T10:51:53;5.20;;;4.80;;
19905;SDS011;10115;50.906;4.438;2023-09-18T10:54:20;5.27;;;4.83;;
19905;SDS011;10115;50.906;4.438;2023-09-18T10:56:48;5.47;;;5.00;;
19905;SDS011;10115;50.906;4.438;2023-09-18T10:59:15;5.20;;;4.80;;
19905;SDS011;10115;50.906;4.438;2023-09-18T11:01:41;5.30;;;4.37;;
19905;SDS011;10115;50.906;4.438;2023-09-18T11:04:08;4.33;;;4.13;;
19905;SDS011;10115;50.906;4.438;2023-09-18T11:09:22;5.37;;;5.07;;
19905;SDS011;10115;50.906;4.438;2023-09-18T11:12:14;7.43;;;4.83;;
19905;SDS011;10115;50.906;4.438;2023-09-18T11:17:29;8.47;;;4.73;;
19905;SDS011;10115;50.906;4.438;2023-09-18T11:20:03;7.43;;;4.20;;
19905;SDS011;10115;50.906;4.438;2023-09-18T11:22:39;5.83;;;4.80;;
19905;SDS011;10115;50.906;4.438;2023-09-18T11:28:01;5.37;;;4.90;;
19905;SDS011;10115;50.906;4.438;2023-09-18T11:30:28;4.57;;;4.27;;
19905;SDS011;10115;50.906;4.438;2023-09-18T11:32:54;10.87;;;4.63;;
19905;SDS011;10115;50.906;4.438;2023-09-18T11:35:21;5.27;;;4.07;;
19905;SDS011;10115;50.906;4.438;2023-09-18T11:37:47;4.13;;;3.83;;
19905;SDS011;10115;50.906;4.438;2023-09-18T11:40:30;4.43;;;4.03;;
19905;SDS011;10115;50.906;4.438;2023-09-18T11:45:59;6.90;;;4.17;;
19905;SDS011;10115;50.906;4.438;2023-09-18T11:48:29;7.17;;;4.90;;
19905;SDS011;10115;50.906;4.438;2023-09-18T11:50:59;5.37;;;4.10;;
19905;SDS011;10115;50.906;4.438;2023-09-18T11:53:29;4.37;;;4.07;;
19905;SDS011;10115;50.906;4.438;2023-09-18T11:56:02;4.53;;;4.17;;
19905;SDS011;10115;50.906;4.438;2023-09-18T11:58:28;5.03;;;4.53;;
19905;SDS011;10115;50.906;4.438;2023-09-18T12:00:54;3.80;;;3.60;;
19905;SDS011;10115;50.906;4.438;2023-09-18T12:03:21;4.90;;;4.43;;
19905;SDS011;10115;50.906;4.438;2023-09-18T12:05:58;7.07;;;4.07;;
19905;SDS011;10115;50.906;4.438;2023-09-18T12:08:25;5.57;;;3.80;;
19905;SDS011;10115;50.906;4.438;2023-09-18T12:10:54;4.57;;;4.27;;
19905;SDS011;10115;50.906;4.438;2023-09-18T12:13:21;5.13;;;4.73;;
19905;SDS011;10115;50.906;4.438;2023-09-18T12:15:47;4.37;;;3.97;;
19905;SDS011;10115;50.906;4.438;2023-09-18T12:18:14;4.87;;;4.47;;
19905;SDS011;10115;50.906;4.438;2023-09-18T12:20:44;4.47;;;4.17;;
19905;SDS011;10115;50.906;4.438;2023-09-18T12:23:11;3.97;;;3.70;;
19905;SDS011;10115;50.906;4.438;2023-09-18T12:25:38;4.80;;;4.30;;
19905;SDS011;10115;50.906;4.438;2023-09-18T12:28:05;4.33;;;3.63;;
19905;SDS011;10115;50.906;4.438;2023-09-18T12:30:32;4.50;;;3.93;;
19905;SDS011;10115;50.906;4.438;2023-09-18T12:32:59;4.07;;;3.40;;
19905;SDS011;10115;50.906;4.438;2023-09-18T12:35:26;4.50;;;4.10;;
19905;SDS011;10115;50.906;4.438;2023-09-18T12:37:58;5.23;;;3.83;;
19905;SDS011;10115;50.906;4.438;2023-09-18T12:40:30;3.13;;;2.90;;
19905;SDS011;10115;50.906;4.438;2023-09-18T12:42:59;4.17;;;3.77;;
19905;SDS011;10115;50.906;4.438;2023-09-18T12:45:26;4.83;;;3.77;;
19905;SDS011;10115;50.906;4.438;2023-09-18T12:47:54;4.70;;;4.40;;
19905;SDS011;10115;50.906;4.438;2023-09-18T12:50:21;4.43;;;4.13;;
19905;SDS011;10115;50.906;4.438;2023-09-18T12:52:47;3.80;;;3.60;;
19905;SDS011;10115;50.906;4.438;2023-09-18T12:55:20;3.57;;;3.27;;
19905;SDS011;10115;50.906;4.438;2023-09-18T12:57:50;3.67;;;3.47;;
19905;SDS011;10115;50.906;4.438;2023-09-18T13:00:18;4.10;;;3.70;;
19905;SDS011;10115;50.906;4.438;2023-09-18T13:02:46;3.77;;;3.03;;
19905;SDS011;10115;50.906;4.438;2023-09-18T13:05:12;3.43;;;3.33;;
19905;SDS011;10115;50.906;4.438;2023-09-18T13:07:44;3.60;;;3.30;;
19905;SDS011;10115;50.906;4.438;2023-09-18T13:10:10;4.07;;;3.63;;
19905;SDS011;10115;50.906;4.438;2023-09-18T13:15:32;6.70;;;3.60;;
19905;SDS011;10115;50.906;4.438;2023-09-18T13:18:00;4.17;;;3.70;;
19905;SDS011;10115;50.906;4.438;2023-09-18T13:20:33;3.43;;;3.13;;
19905;SDS011;10115;50.906;4.438;2023-09-18T13:22:59;3.37;;;2.93;;
19905;SDS011;10115;50.906;4.438;2023-09-18T13:25:28;3.87;;;3.53;;
19905;SDS011;10115;50.906;4.438;2023-09-18T13:27:55;3.97;;;3.60;;
19905;SDS011;10115;50.906;4.438;2023-09-18T13:30:21;9.60;;;3.43;;
19905;SDS011;10115;50.906;4.438;2023-09-18T13:32:48;3.30;;;3.03;;
19905;SDS011;10115;50.906;4.438;2023-09-18T13:35:15;3.42;;;3.13;;
19905;SDS011;10115;50.906;4.438;2023-09-18T13:37:42;2.83;;;2.72;;
19905;SDS011;10115;50.906;4.438;2023-09-18T13:40:08;2.90;;;2.70;;
19905;SDS011;10115;50.906;4.438;2023-09-18T13:42:35;11.32;;;3.78;;
19905;SDS011;10115;50.906;4.438;2023-09-18T13:45:01;4.75;;;3.20;;
19905;SDS011;10115;50.906;4.438;2023-09-18T13:47:34;2.92;;;2.83;;
19905;SDS011;10115;50.906;4.438;2023-09-18T13:50:01;3.90;;;3.45;;
19905;SDS011;10115;50.906;4.438;2023-09-18T13:52:32;3.38;;;3.17;;
19905;SDS011;10115;50.906;4.438;2023-09-18T13:54:59;3.53;;;3.33;;
19905;SDS011;10115;50.906;4.438;2023-09-18T13:57:25;2.70;;;2.60;;
19905;SDS011;10115;50.906;4.438;2023-09-18T13:59:51;3.23;;;3.07;;
19905;SDS011;10115;50.906;4.438;2023-09-18T14:02:18;4.83;;;4.50;;
19905;SDS011;10115;50.906;4.438;2023-09-18T14:04:44;3.77;;;3.57;;
19905;SDS011;10115;50.906;4.438;2023-09-18T14:07:10;8.10;;;3.73;;
19905;SDS011;10115;50.906;4.438;2023-09-18T14:09:37;3.10;;;2.90;;
19905;SDS011;10115;50.906;4.438;2023-09-18T14:12:03;3.40;;;3.20;;
19905;SDS011;10115;50.906;4.438;2023-09-18T14:14:32;4.03;;;3.33;;
19905;SDS011;10115;50.906;4.438;2023-09-18T14:16:58;4.73;;;3.57;;
19905;SDS011;10115;50.906;4.438;2023-09-18T14:19:24;4.53;;;3.57;;
19905;SDS011;10115;50.906;4.438;2023-09-18T14:21:50;3.87;;;3.67;;
19905;SDS011;10115;50.906;4.438;2023-09-18T14:24:17;3.63;;;3.43;;
19905;SDS011;10115;50.906;4.438;2023-09-18T14:26:47;3.78;;;3.50;;
19905;SDS011;10115;50.906;4.438;2023-09-18T14:29:13;3.17;;;3.00;;
19905;SDS011;10115;50.906;4.438;2023-09-18T14:31:39;4.00;;;3.70;;
19905;SDS011;10115;50.906;4.438;2023-09-18T14:34:05;4.37;;;3.97;;
19905;SDS011;10115;50.906;4.438;2023-09-18T14:36:34;7.47;;;3.50;;
19905;SDS011;10115;50.906;4.438;2023-09-18T14:39:01;6.90;;;3.50;;
19905;SDS011;10115;50.906;4.438;2023-09-18T14:41:27;4.47;;;3.97;;
19905;SDS011;10115;50.906;4.438;2023-09-18T14:43:53;4.10;;;3.80;;
19905;SDS011;10115;50.906;4.438;2023-09-18T14:46:22;5.13;;;3.57;;
19905;SDS011;10115;50.906;4.438;2023-09-18T14:48:48;4.37;;;3.83;;
19905;SDS011;10115;50.906;4.438;2023-09-18T14:51:13;4.07;;;3.87;;
19905;SDS011;10115;50.906;4.438;2023-09-18T14:53:39;4.17;;;3.87;;
19905;SDS011;10115;50.906;4.438;2023-09-18T14:56:04;3.27;;;3.17;;
19905;SDS011;10115;50.906;4.438;2023-09-18T14:58:30;5.30;;;5.00;;
19905;SDS011;10115;50.906;4.438;2023-09-18T15:00:56;5.60;;;5.30;;
19905;SDS011;10115;50.906;4.438;2023-09-18T15:03:22;4.30;;;3.90;;
19905;SDS011;10115;50.906;4.438;2023-09-18T15:05:51;3.67;;;3.47;;
19905;SDS011;10115;50.906;4.438;2023-09-18T15:08:18;3.27;;;3.13;;
19905;SDS011;10115;50.906;4.438;2023-09-18T15:10:47;4.80;;;4.37;;